createdAt,value
2019-02-19T00:01:02.184Z,99730.13
2019-02-19T00:03:38.017Z,99735.70
2019-02-19T00:06:14.496Z,99730.98
2019-02-19T00:08:49.626Z,99732.35
2019-02-19T00:11:24.745Z,99726.20
2019-02-19T00:13:59.114Z,99724.82
2019-02-19T00:16:37.229Z,99721.33
2019-02-19T00:19:14.203Z,99723.98
2019-02-19T00:21:49.000Z,99724.31
2019-02-19T00:24:24.869Z,99728.30
2019-02-19T00:27:01.641Z,99721.27
2019-02-19T00:29:36.691Z,99725.58
2019-02-19T00:32:11.763Z,99725.69
2019-02-19T00:34:47.137Z,99723.42
2019-02-19T00:37:22.967Z,99720.71
2019-02-19T00:39:59.506Z,99715.12
2019-02-19T00:42:35.041Z,99717.66
2019-02-19T00:45:16.686Z,99723.36
2019-02-19T00:47:48.032Z,99721.31
2019-02-19T00:50:22.989Z,99723.23
2019-02-19T00:52:58.740Z,99730.94
2019-02-19T00:55:34.490Z,99730.77
2019-02-19T00:58:10.167Z,99725.22
2019-02-19T01:00:45.279Z,99722.61
2019-02-19T01:03:20.318Z,99722.39
2019-02-19T01:05:55.482Z,99715.64
2019-02-19T01:08:31.314Z,99716.09
2019-02-19T01:11:05.712Z,99715.91
2019-02-19T01:13:41.888Z,99717.67
2019-02-19T01:16:16.828Z,99718.09
2019-02-19T01:18:53.402Z,99715.09
2019-02-19T01:21:28.327Z,99711.03
2019-02-19T01:24:02.805Z,99708.81
2019-02-19T01:26:38.155Z,99704.83
2019-02-19T01:29:13.820Z,99701.61
2019-02-19T01:31:49.859Z,99703.58
2019-02-19T01:34:24.843Z,99698.14
2019-02-19T01:37:00.589Z,99699.40
2019-02-19T01:39:36.857Z,99696.02
2019-02-19T01:42:11.990Z,99697.66
2019-02-19T01:44:48.026Z,99691.51
2019-02-19T01:47:24.982Z,99690.22
2019-02-19T01:50:02.559Z,99687.57
2019-02-19T01:52:37.683Z,99684.45
2019-02-19T01:55:13.612Z,99681.47
2019-02-19T01:57:49.473Z,99680.88
2019-02-19T02:00:25.651Z,99684.14
2019-02-19T02:03:00.714Z,99679.94
2019-02-19T02:05:36.322Z,99678.73
2019-02-19T02:08:13.775Z,99670.12
2019-02-19T02:10:48.750Z,99667.75
2019-02-19T02:13:23.882Z,99672.91
2019-02-19T02:15:59.866Z,99672.44
2019-02-19T02:18:34.895Z,99674.05
2019-02-19T02:21:10.745Z,99668.98
2019-02-19T02:23:49.062Z,99661.17
2019-02-19T02:26:22.040Z,99667.78
2019-02-19T02:28:58.664Z,99659.38
2019-02-19T02:31:32.810Z,99655.19
2019-02-19T02:34:05.840Z,99656.91
2019-02-19T02:36:39.341Z,99645.63
2019-02-19T02:39:12.657Z,99644.28
2019-02-19T02:41:46.445Z,99649.39
2019-02-19T02:44:20.304Z,99644.03
2019-02-19T02:46:54.138Z,99650.89
2019-02-19T02:49:28.441Z,99647.85
2019-02-19T02:52:05.214Z,99656.33
2019-02-19T02:54:40.779Z,99649.97
2019-02-19T02:57:17.315Z,99641.70
2019-02-19T02:59:53.224Z,99645.15
2019-02-19T03:02:28.925Z,99638.84
2019-02-19T03:05:03.247Z,99636.80
2019-02-19T03:07:42.372Z,99636.31
2019-02-19T03:10:19.319Z,99637.09
2019-02-19T03:12:56.183Z,99632.88
2019-02-19T03:15:32.376Z,99633.59
2019-02-19T03:18:09.168Z,99629.56
2019-02-19T03:20:47.002Z,99626.72
2019-02-19T03:23:22.990Z,99627.56
2019-02-19T03:25:59.170Z,99625.17
2019-02-19T03:28:34.378Z,99629.67
2019-02-19T03:31:09.384Z,99632.75
2019-02-19T03:33:46.050Z,99633.83
2019-02-19T03:36:21.213Z,99630.59
2019-02-19T03:38:58.620Z,99629.00
2019-02-19T03:41:33.638Z,99635.80
2019-02-19T03:44:09.179Z,99635.35
2019-02-19T03:46:45.530Z,99635.70
2019-02-19T03:49:21.489Z,99638.30
2019-02-19T03:51:58.755Z,99645.16
2019-02-19T03:54:33.750Z,99641.61
2019-02-19T03:57:09.270Z,99643.37
2019-02-19T03:59:44.784Z,99641.77
2019-02-19T04:02:19.232Z,99646.59
2019-02-19T04:04:54.988Z,99644.08
2019-02-19T04:07:30.697Z,99640.89
2019-02-19T04:10:07.401Z,99633.85
2019-02-19T04:12:44.610Z,99632.36
2019-02-19T04:15:19.357Z,99634.46
2019-02-19T04:17:54.238Z,99628.97
2019-02-19T04:20:28.758Z,99627.75
2019-02-19T04:23:03.804Z,99622.51
2019-02-19T04:25:38.088Z,99618.19
2019-02-19T04:28:12.483Z,99617.78
2019-02-19T04:30:48.348Z,99615.69
2019-02-19T04:33:23.752Z,99613.41
2019-02-19T04:35:58.199Z,99614.63
2019-02-19T04:38:36.070Z,99606.67
2019-02-19T04:41:12.846Z,99612.81
2019-02-19T04:43:49.654Z,99601.57
2019-02-19T04:46:31.491Z,99599.91
2019-02-19T04:49:00.855Z,99600.78
2019-02-19T04:51:35.838Z,99596.27
2019-02-19T04:54:12.520Z,99597.41
2019-02-19T04:56:47.267Z,99594.77
2019-02-19T04:59:23.940Z,99597.73
2019-02-19T05:02:00.115Z,99592.32
2019-02-19T05:04:36.636Z,99587.97
2019-02-19T05:07:12.724Z,99583.03
2019-02-19T05:09:49.506Z,99586.38
2019-02-19T05:12:24.736Z,99585.31
2019-02-19T05:15:01.828Z,99582.93
2019-02-19T05:17:38.783Z,99586.31
2019-02-19T05:20:15.626Z,99584.41
2019-02-19T05:22:50.811Z,99589.95
2019-02-19T05:25:27.762Z,99587.52
2019-02-19T05:28:05.104Z,99592.45
2019-02-19T05:30:43.041Z,99591.11
2019-02-19T05:33:19.697Z,99594.52
2019-02-19T05:35:56.805Z,99593.92
2019-02-19T05:38:32.395Z,99597.47
2019-02-19T05:41:07.516Z,99593.03
2019-02-19T05:43:42.488Z,99591.98
2019-02-19T05:46:18.939Z,99598.88
2019-02-19T05:48:54.607Z,99596.11
2019-02-19T05:51:29.705Z,99597.48
2019-02-19T05:54:05.718Z,99597.00
2019-02-19T05:56:41.731Z,99598.96
2019-02-19T05:59:23.340Z,99598.53
2019-02-19T06:02:09.125Z,99598.02
2019-02-19T06:04:56.897Z,99593.06
2019-02-19T06:07:40.579Z,99592.55
2019-02-19T06:10:20.739Z,99592.56
2019-02-19T06:13:09.256Z,99591.91
2019-02-19T06:15:41.789Z,99591.14
2019-02-19T06:18:15.944Z,99592.91
2019-02-19T06:20:48.943Z,99591.59
2019-02-19T06:23:24.270Z,99595.41
2019-02-19T06:25:59.691Z,99595.84
2019-02-19T06:28:34.036Z,99594.19
2019-02-19T06:31:10.119Z,99598.39
2019-02-19T06:33:45.072Z,99597.75
2019-02-19T06:36:21.983Z,99599.52
2019-02-19T06:38:58.336Z,99598.13
2019-02-19T06:41:34.277Z,99597.47
2019-02-19T06:44:09.301Z,99600.57
2019-02-19T06:46:47.533Z,99598.38
2019-02-19T06:49:23.130Z,99591.84
2019-02-19T06:51:59.326Z,99598.09
2019-02-19T06:54:33.858Z,99592.73
2019-02-19T06:57:08.396Z,99600.15
2019-02-19T06:59:43.335Z,99596.70
2019-02-19T07:02:30.937Z,99594.40
2019-02-19T07:05:08.727Z,99593.34
2019-02-19T07:07:46.016Z,99591.53
2019-02-19T07:10:19.399Z,99587.38
2019-02-19T07:12:53.759Z,99589.92
2019-02-19T07:15:27.503Z,99588.98
2019-02-19T07:18:02.799Z,99596.95
2019-02-19T07:20:37.148Z,99594.42
2019-02-19T07:23:11.667Z,99592.31
2019-02-19T07:25:46.935Z,99592.03
2019-02-19T07:28:22.315Z,99590.27
2019-02-19T07:30:57.343Z,99597.56
2019-02-19T07:33:31.683Z,99600.77
2019-02-19T07:36:06.689Z,99596.23
2019-02-19T07:38:40.890Z,99603.30
2019-02-19T07:41:15.637Z,99598.50
2019-02-19T07:43:49.812Z,99599.09
2019-02-19T07:46:25.467Z,99597.64
2019-02-19T07:48:58.704Z,99591.70
2019-02-19T07:51:33.355Z,99588.63
2019-02-19T07:54:08.271Z,99582.67
2019-02-19T07:56:43.559Z,99586.88
2019-02-19T07:59:16.373Z,99587.53
2019-02-19T08:01:50.209Z,99588.38
2019-02-19T08:04:25.063Z,99579.38
2019-02-19T08:06:59.410Z,99586.44
2019-02-19T08:09:34.056Z,99587.67
2019-02-19T08:12:08.361Z,99583.26
2019-02-19T08:14:41.261Z,99584.73
2019-02-19T08:17:14.503Z,99586.36
2019-02-19T08:19:48.829Z,99585.77
2019-02-19T08:22:23.609Z,99586.73
2019-02-19T08:24:58.259Z,99592.55
2019-02-19T08:27:31.139Z,99589.28
2019-02-19T08:30:05.649Z,99589.33
2019-02-19T08:32:40.060Z,99586.49
2019-02-19T08:35:13.483Z,99588.04
2019-02-19T08:37:46.827Z,99588.16
2019-02-19T08:40:21.981Z,99586.96
2019-02-19T08:42:55.766Z,99587.37
2019-02-19T08:45:28.564Z,99589.20
2019-02-19T08:48:02.463Z,99584.25
2019-02-19T08:50:36.706Z,99588.20
2019-02-19T08:53:10.345Z,99588.56
2019-02-19T08:55:46.396Z,99582.94
2019-02-19T08:58:19.352Z,99582.13
2019-02-19T09:00:52.275Z,99584.89
2019-02-19T09:03:26.895Z,99588.41
2019-02-19T09:05:59.255Z,99586.59
2019-02-19T09:08:32.163Z,99586.00
2019-02-19T09:11:05.148Z,99587.40
2019-02-19T09:13:38.401Z,99590.17
2019-02-19T09:16:11.518Z,99587.17
2019-02-19T09:18:44.758Z,99583.92
2019-02-19T09:21:16.797Z,99585.77
2019-02-19T09:23:49.214Z,99581.27
2019-02-19T09:26:23.371Z,99574.67
2019-02-19T09:28:56.646Z,99572.89
2019-02-19T09:31:29.159Z,99576.23
2019-02-19T09:34:02.888Z,99575.30
2019-02-19T09:36:36.360Z,99577.20
2019-02-19T09:39:10.385Z,99576.70
2019-02-19T09:41:44.232Z,99574.70
2019-02-19T09:44:18.412Z,99569.33
2019-02-19T09:46:52.659Z,99575.90
2019-02-19T09:49:26.878Z,99571.86
2019-02-19T09:51:58.850Z,99574.09
2019-02-19T09:54:31.400Z,99573.55
2019-02-19T09:57:04.712Z,99573.02
2019-02-19T09:59:39.126Z,99571.81
2019-02-19T10:02:12.630Z,99568.08
2019-02-19T10:04:45.109Z,99565.28
2019-02-19T10:07:19.393Z,99565.80
2019-02-19T10:09:53.261Z,99561.27
2019-02-19T10:12:27.926Z,99558.21
2019-02-19T10:15:00.847Z,99563.69
2019-02-19T10:17:34.147Z,99549.75
2019-02-19T10:20:07.704Z,99554.56
2019-02-19T10:22:41.258Z,99543.61
2019-02-19T10:25:14.202Z,99541.98
2019-02-19T10:27:47.068Z,99548.34
2019-02-19T10:30:19.563Z,99546.59
2019-02-19T10:32:52.535Z,99543.44
2019-02-19T10:35:24.688Z,99538.92
2019-02-19T10:37:58.149Z,99538.19
2019-02-19T10:40:30.619Z,99539.67
2019-02-19T10:43:02.633Z,99533.79
2019-02-19T10:45:36.204Z,99536.98
2019-02-19T10:48:09.595Z,99535.09
2019-02-19T10:50:43.016Z,99532.11
2019-02-19T10:53:15.898Z,99524.89
2019-02-19T10:55:48.953Z,99516.85
2019-02-19T10:58:23.290Z,99511.76
2019-02-19T11:00:57.424Z,99509.31
2019-02-19T11:03:30.404Z,99506.98
2019-02-19T11:06:03.289Z,99496.30
2019-02-19T11:08:36.099Z,99493.88
2019-02-19T11:11:09.352Z,99500.88
2019-02-19T11:13:43.318Z,99500.87
2019-02-19T11:16:16.261Z,99501.95
2019-02-19T11:18:49.224Z,99500.32
2019-02-19T11:21:22.714Z,99487.70
2019-02-19T11:23:55.117Z,99487.09
2019-02-19T11:26:28.077Z,99486.83
2019-02-19T11:29:02.549Z,99482.95
2019-02-19T11:31:36.259Z,99472.63
2019-02-19T11:34:09.138Z,99472.78
2019-02-19T11:36:42.441Z,99469.57
2019-02-19T11:39:16.480Z,99467.84
2019-02-19T11:41:49.861Z,99463.50
2019-02-19T11:44:22.918Z,99461.37
2019-02-19T11:46:56.933Z,99452.58
2019-02-19T11:49:30.354Z,99458.09
2019-02-19T11:52:03.306Z,99463.19
2019-02-19T11:54:37.078Z,99448.39
2019-02-19T11:57:10.444Z,99439.81
2019-02-19T11:59:44.152Z,99447.50
2019-02-19T12:02:18.452Z,99443.13
2019-02-19T12:04:52.699Z,99433.58
2019-02-19T12:07:26.985Z,99433.95
2019-02-19T12:10:01.890Z,99433.29
2019-02-19T12:12:35.640Z,99428.41
2019-02-19T12:15:08.634Z,99423.91
2019-02-19T12:17:42.054Z,99433.12
2019-02-19T12:20:14.562Z,99435.63
2019-02-19T12:22:48.011Z,99426.82
2019-02-19T12:25:21.196Z,99419.33
2019-02-19T12:27:57.434Z,99421.31
2019-02-19T12:30:33.174Z,99415.31
2019-02-19T12:33:10.465Z,99410.67
2019-02-19T12:35:45.043Z,99404.27
2019-02-19T12:38:20.665Z,99409.77
2019-02-19T12:40:57.092Z,99402.97
2019-02-19T12:43:33.989Z,99403.23
2019-02-19T12:46:09.159Z,99403.77
2019-02-19T12:48:44.992Z,99394.34
2019-02-19T12:51:26.462Z,99395.22
2019-02-19T12:53:59.770Z,99398.46
2019-02-19T12:56:36.520Z,99394.86
2019-02-19T12:59:14.041Z,99396.47
2019-02-19T13:01:50.251Z,99401.64
2019-02-19T13:04:25.206Z,99393.88
2019-02-19T13:07:01.513Z,99393.81
2019-02-19T13:09:39.470Z,99395.11
2019-02-19T13:12:26.046Z,99400.55
2019-02-19T13:15:00.414Z,99392.80
2019-02-19T13:17:36.537Z,99397.77
2019-02-19T13:20:14.077Z,99391.34
2019-02-19T13:22:49.934Z,99384.91
2019-02-19T13:25:25.438Z,99389.31
2019-02-19T13:28:00.568Z,99382.19
2019-02-19T13:30:35.469Z,99383.18
2019-02-19T13:33:10.540Z,99377.45
2019-02-19T13:35:46.745Z,99386.73
2019-02-19T13:38:21.331Z,99384.64
2019-02-19T13:40:56.434Z,99374.97
2019-02-19T13:43:30.024Z,99376.74
2019-02-19T13:46:03.349Z,99381.98
2019-02-19T13:48:37.427Z,99377.91
2019-02-19T13:51:10.815Z,99369.48
2019-02-19T13:53:47.856Z,99374.98
2019-02-19T13:56:21.184Z,99375.84
2019-02-19T13:58:54.290Z,99373.53
2019-02-19T14:02:11.080Z,99376.47
2019-02-19T14:05:05.843Z,99370.52
2019-02-19T14:12:11.846Z,99379.67
2019-02-19T14:15:32.484Z,99378.90
2019-02-19T14:18:22.637Z,99375.20
2019-02-19T14:21:42.563Z,99378.13
2019-02-19T14:25:08.154Z,99386.20
2019-02-19T14:28:44.579Z,99393.69
2019-02-19T14:31:46.833Z,99385.91
2019-02-19T14:35:11.072Z,99394.59
2019-02-19T14:42:55.450Z,99396.84
2019-02-19T14:50:57.243Z,99390.50
2019-02-19T14:59:00.985Z,99385.60
2019-02-19T15:10:58.065Z,99379.70
2019-02-19T15:14:49.382Z,99380.12
2019-02-19T15:19:00.156Z,99380.70
2019-02-19T15:35:55.023Z,99377.67
2019-02-19T16:03:24.708Z,99397.16
2019-02-19T16:06:52.465Z,99406.86
2019-02-19T16:09:44.517Z,99411.84
2019-02-19T16:12:39.954Z,99412.66
2019-02-19T16:15:47.811Z,99415.84
2019-02-19T16:18:43.065Z,99416.42
2019-02-19T16:21:30.309Z,99411.17
2019-02-19T16:24:32.576Z,99408.70
2019-02-19T16:27:32.975Z,99413.54
2019-02-19T16:30:37.209Z,99409.06
2019-02-19T16:33:33.549Z,99408.59
2019-02-19T16:36:15.025Z,99411.84
2019-02-19T16:39:08.092Z,99408.22
2019-02-19T16:42:00.715Z,99406.39
2019-02-19T16:45:01.421Z,99412.72
2019-02-19T16:47:43.188Z,99424.13
2019-02-19T16:50:54.307Z,99423.84
2019-02-19T16:53:46.696Z,99427.83
2019-02-19T16:56:41.367Z,99428.49
2019-02-19T16:59:33.994Z,99442.38
2019-02-19T17:02:16.301Z,99445.93
2019-02-19T17:05:15.369Z,99444.83
2019-02-19T17:08:05.747Z,99449.72
2019-02-19T17:10:59.267Z,99449.69
2019-02-19T17:13:58.142Z,99448.17
2019-02-19T17:16:53.195Z,99448.35
2019-02-19T17:19:48.626Z,99447.70
2019-02-19T17:22:41.167Z,99454.80
2019-02-19T17:25:32.787Z,99454.48
2019-02-19T17:28:18.085Z,99459.25
2019-02-19T17:31:23.321Z,99461.16
2019-02-19T17:34:17.403Z,99457.67
2019-02-19T17:37:22.543Z,99463.39
2019-02-19T17:40:25.601Z,99463.39
2019-02-19T17:43:16.648Z,99464.57
2019-02-19T17:46:12.094Z,99471.97
2019-02-19T17:49:07.582Z,99468.70
2019-02-19T17:51:54.179Z,99466.97
2019-02-19T17:54:41.529Z,99474.94
2019-02-19T17:57:55.667Z,99482.27
2019-02-19T18:01:08.410Z,99477.98
2019-02-19T18:03:59.138Z,99475.36
2019-02-19T18:06:55.190Z,99477.42
2019-02-19T18:10:01.770Z,99487.02
2019-02-19T18:12:56.271Z,99485.73
2019-02-19T18:15:57.696Z,99497.23
2019-02-19T18:18:51.037Z,99498.25
2019-02-19T18:21:25.896Z,99497.52
2019-02-19T18:23:59.428Z,99500.50
2019-02-19T18:26:32.682Z,99500.68
2019-02-19T18:29:06.169Z,99515.80
2019-02-19T18:31:39.723Z,99516.19
2019-02-19T18:34:13.215Z,99520.08
2019-02-19T18:36:46.270Z,99532.48
2019-02-19T18:39:19.399Z,99531.23
2019-02-19T18:41:57.634Z,99538.67
2019-02-19T18:44:30.650Z,99550.71
2019-02-19T18:47:12.824Z,99553.91
2019-02-19T18:49:48.961Z,99563.42
2019-02-19T18:52:24.613Z,99566.48
2019-02-19T18:54:59.439Z,99583.31
2019-02-19T18:57:32.988Z,99581.28
2019-02-19T19:00:12.475Z,99579.16
2019-02-19T19:02:48.773Z,99586.80
2019-02-19T19:05:25.218Z,99585.41
2019-02-19T19:08:00.082Z,99592.86
2019-02-19T19:10:35.189Z,99596.14
2019-02-19T19:13:10.999Z,99596.92
2019-02-19T19:15:45.623Z,99601.73
2019-02-19T19:18:24.788Z,99600.34
2019-02-19T19:21:11.410Z,99594.00
2019-02-19T19:23:47.257Z,99598.77
2019-02-19T19:26:23.451Z,99605.44
2019-02-19T19:28:59.190Z,99607.78
2019-02-19T19:31:45.070Z,99600.54
2019-02-19T19:34:19.741Z,99582.89
2019-02-19T19:37:00.130Z,99582.45
2019-02-19T19:39:37.023Z,99584.13
2019-02-19T19:42:11.865Z,99586.11
2019-02-19T19:45:01.126Z,99587.13
2019-02-19T19:47:40.492Z,99587.45
2019-02-19T19:50:24.077Z,99594.92
2019-02-19T19:53:03.835Z,99603.20
2019-02-19T19:55:37.971Z,99606.34
2019-02-19T19:58:13.909Z,99607.50
2019-02-19T20:00:48.936Z,99605.08
2019-02-19T20:03:22.314Z,99605.42
2019-02-19T20:05:57.230Z,99612.02
2019-02-19T20:08:31.901Z,99617.22
2019-02-19T20:11:10.709Z,99618.81
2019-02-19T20:13:47.469Z,99618.00
2019-02-19T20:16:22.379Z,99624.11
2019-02-19T20:18:56.627Z,99626.80
2019-02-19T20:21:32.901Z,99619.80
2019-02-19T20:24:07.629Z,99623.48
2019-02-19T20:26:42.482Z,99621.30
2019-02-19T20:29:18.589Z,99623.47
2019-02-19T20:31:54.922Z,99623.22
2019-02-19T20:34:32.600Z,99630.23
2019-02-19T20:37:07.529Z,99623.53
2019-02-19T20:39:56.685Z,99625.03
2019-02-19T20:42:30.779Z,99622.64
2019-02-19T20:45:05.122Z,99627.70
2019-02-19T20:47:39.628Z,99636.47
2019-02-19T20:50:16.089Z,99631.30
2019-02-19T20:52:50.559Z,99631.44
2019-02-19T20:55:24.258Z,99633.95
2019-02-19T20:57:59.875Z,99629.84
2019-02-19T21:00:33.741Z,99633.94
2019-02-19T21:03:10.565Z,99628.59
2019-02-19T21:05:50.343Z,99629.92
2019-02-19T21:08:24.706Z,99633.80
2019-02-19T21:11:06.545Z,99632.78
2019-02-19T21:13:40.432Z,99634.63
2019-02-19T21:16:14.719Z,99635.20
2019-02-19T21:18:48.982Z,99640.71
2019-02-19T21:21:24.004Z,99636.01
2019-02-19T21:23:58.043Z,99632.06
2019-02-19T21:26:32.106Z,99630.66
2019-02-19T21:29:07.963Z,99626.67
2019-02-19T21:31:42.395Z,99626.39
2019-02-19T21:34:16.539Z,99624.27
2019-02-19T21:36:50.708Z,99628.08
2019-02-19T21:39:25.078Z,99634.58
2019-02-19T21:42:00.019Z,99639.11
2019-02-19T21:44:33.980Z,99635.34
2019-02-19T21:47:08.884Z,99637.75
2019-02-19T21:49:46.073Z,99643.06
2019-02-19T21:52:20.969Z,99645.14
2019-02-19T21:54:56.180Z,99638.69
2019-02-19T21:57:31.017Z,99635.73
2019-02-19T22:00:06.165Z,99640.66
2019-02-19T22:02:39.994Z,99634.38
2019-02-19T22:05:14.516Z,99637.83
2019-02-19T22:07:48.543Z,99641.13
2019-02-19T22:10:23.221Z,99644.28
2019-02-19T22:12:56.381Z,99638.45
2019-02-19T22:15:33.621Z,99634.46
2019-02-19T22:18:09.987Z,99642.05
2019-02-19T22:21:01.565Z,99637.42
2019-02-19T22:23:35.819Z,99634.97
2019-02-19T22:26:10.973Z,99638.93
2019-02-19T22:28:44.857Z,99640.06
2019-02-19T22:31:19.908Z,99644.59
2019-02-19T22:33:56.075Z,99647.66
2019-02-19T22:36:31.130Z,99647.95
2019-02-19T22:39:07.491Z,99646.16
2019-02-19T22:41:42.503Z,99650.52
2019-02-19T22:44:17.707Z,99652.27
2019-02-19T22:46:52.077Z,99653.03
2019-02-19T22:49:27.108Z,99653.10
2019-02-19T22:52:00.392Z,99654.99
2019-02-19T22:54:39.279Z,99652.16
2019-02-19T22:57:13.166Z,99655.02
2019-02-19T22:59:48.076Z,99655.52
2019-02-19T23:02:24.469Z,99660.09
2019-02-19T23:04:58.324Z,99661.92
2019-02-19T23:07:33.271Z,99658.82
2019-02-19T23:10:08.306Z,99664.03
2019-02-19T23:12:43.244Z,99663.94
2019-02-19T23:15:17.492Z,99658.64
2019-02-19T23:17:52.498Z,99659.86
2019-02-19T23:20:27.504Z,99660.95
2019-02-19T23:23:02.540Z,99666.36
2019-02-19T23:25:37.617Z,99660.84
2019-02-19T23:28:12.982Z,99663.16
2019-02-19T23:30:47.341Z,99667.66
2019-02-19T23:33:21.724Z,99663.34
2019-02-19T23:36:06.634Z,99663.13
2019-02-19T23:38:41.592Z,99663.47
2019-02-19T23:41:16.023Z,99666.44
2019-02-19T23:43:52.279Z,99661.94
2019-02-19T23:46:27.517Z,99651.57
2019-02-19T23:49:01.900Z,99658.83
2019-02-19T23:51:37.267Z,99656.20
2019-02-19T23:54:13.225Z,99655.43
2019-02-19T23:56:48.849Z,99656.22
2019-02-19T23:59:24.262Z,99666.61
